KPVU

Provo Municipal Airport

Provo, Utah, USA
METAR KPVU 280056Z 12005KT 10SM BKN110 16/09 A3001 RMK AO2 SLP130 T01560094
Observed Flight Rules
May-28 @ 00:56 UTC (17 minutes ago) Visual Flight Rules
Wind Visibility Clouds
120° at 5 knots 10 miles
  • Broken at 11,000' AGL
Temperatures Readings
Current 16°C / 61°F
Dewpoint 9°C / 48°F
Humidity 63%
Altimeter 30.01" Hg
Pressure 1013 hPa
Elevation 1369
METAR KPVU 280056Z 12005KT 10SM BKN110 16/09 A3001 RMK AO2 SLP130 T01560094
Observed Flight Rules
May-28 @ 00:56 UTC
(17 minutes ago)
VFR
Wind Visibility
120° at 5 knots 10 miles
Clouds
  • Broken at 11,000' AGL
Temperature Dewpoint
16°C / 61°F 9°C / 48°F
Humidity Altimeter Pressure
63% 30.01" Hg 1013 hPa